createdAt,value
2018-12-05T00:00:05.514Z,6.53
2018-12-05T00:01:05.502Z,6.45
2018-12-05T00:02:05.490Z,6.43
2018-12-05T00:03:05.477Z,6.55
2018-12-05T00:04:05.467Z,6.54
2018-12-05T00:05:05.460Z,6.54
2018-12-05T00:06:05.451Z,6.51
2018-12-05T00:07:05.438Z,6.55
2018-12-05T00:08:05.428Z,6.54
2018-12-05T00:09:05.412Z,6.53
2018-12-05T00:10:05.402Z,6.46
2018-12-05T00:11:05.391Z,6.48
2018-12-05T00:12:05.380Z,6.53
2018-12-05T00:13:05.374Z,6.53
2018-12-05T00:14:05.364Z,6.51
2018-12-05T00:15:05.347Z,6.50
2018-12-05T00:16:05.340Z,6.46
2018-12-05T00:17:05.332Z,6.50
2018-12-05T00:18:05.321Z,6.55
2018-12-05T00:19:05.311Z,6.51
2018-12-05T00:20:05.301Z,6.57
2018-12-05T00:21:05.284Z,6.60
2018-12-05T00:22:05.273Z,6.53
2018-12-05T00:23:05.261Z,6.55
2018-12-05T00:24:05.252Z,6.51
2018-12-05T00:25:05.246Z,6.50
2018-12-05T00:26:05.234Z,6.45
2018-12-05T00:27:05.223Z,6.54
2018-12-05T00:28:05.216Z,6.54
2018-12-05T00:29:05.199Z,6.54
2018-12-05T00:30:05.187Z,6.54
2018-12-05T00:31:05.185Z,6.57
2018-12-05T00:32:05.171Z,6.57
2018-12-05T00:33:05.155Z,6.63
2018-12-05T00:34:05.144Z,6.57
2018-12-05T00:35:05.134Z,6.58
2018-12-05T00:36:05.123Z,6.63
2018-12-05T00:37:05.116Z,6.63
2018-12-05T00:38:05.106Z,6.58
2018-12-05T00:39:05.094Z,6.64
2018-12-05T00:40:05.084Z,6.61
2018-12-05T00:41:05.069Z,6.63
2018-12-05T00:42:05.059Z,6.58
2018-12-05T00:43:05.053Z,6.60
2018-12-05T00:44:05.037Z,6.64
2018-12-05T00:45:05.033Z,6.57
2018-12-05T00:46:05.022Z,6.58
2018-12-05T00:47:05.005Z,6.64
2018-12-05T00:48:04.994Z,6.64
2018-12-05T00:49:04.989Z,6.71
2018-12-05T00:50:04.980Z,6.58
2018-12-05T00:51:04.966Z,6.58
2018-12-05T00:52:04.956Z,6.58
2018-12-05T00:53:04.943Z,6.61
2018-12-05T00:54:04.930Z,6.64
2018-12-05T00:55:04.920Z,6.58
2018-12-05T00:56:04.910Z,6.64
2018-12-05T00:57:04.906Z,6.65
2018-12-05T00:58:04.892Z,6.65
2018-12-05T00:59:04.881Z,6.63
2018-12-05T01:00:04.874Z,6.63
2018-12-05T01:01:04.856Z,6.63
2018-12-05T01:02:04.846Z,6.55
2018-12-05T01:03:04.839Z,6.60
2018-12-05T01:04:04.831Z,6.61
2018-12-05T01:05:04.814Z,6.60
2018-12-05T01:06:04.803Z,6.60
2018-12-05T01:07:04.792Z,6.51
2018-12-05T01:08:04.781Z,6.50
2018-12-05T01:09:04.781Z,6.51
2018-12-05T01:10:04.766Z,6.57
2018-12-05T01:11:04.753Z,6.51
2018-12-05T01:12:04.743Z,6.55
2018-12-05T01:13:04.728Z,6.54
2018-12-05T01:14:04.719Z,6.54
2018-12-05T01:15:04.706Z,6.55
2018-12-05T01:16:04.695Z,6.57
2018-12-05T01:17:04.690Z,6.53
2018-12-05T01:18:04.679Z,6.48
2018-12-05T01:19:04.663Z,6.57
2018-12-05T01:20:04.653Z,6.55
2018-12-05T01:21:04.646Z,6.48
2018-12-05T01:22:04.636Z,6.53
2018-12-05T01:23:04.627Z,6.48
2018-12-05T01:24:04.615Z,6.50
2018-12-05T01:25:04.599Z,6.55
2018-12-05T01:26:04.588Z,6.55
2018-12-05T01:27:04.577Z,6.55
2018-12-05T01:28:04.569Z,6.51
2018-12-05T01:29:04.562Z,6.55
2018-12-05T01:30:04.551Z,6.57
2018-12-05T01:31:04.538Z,6.51
2018-12-05T01:32:04.527Z,6.60
2018-12-05T01:33:04.513Z,6.54
2018-12-05T01:34:04.503Z,6.51
2018-12-05T01:35:04.495Z,6.58
2018-12-05T01:36:04.484Z,6.46
2018-12-05T01:37:04.469Z,6.45
2018-12-05T01:38:04.459Z,6.57
2018-12-05T01:39:04.447Z,6.53
2018-12-05T01:40:04.437Z,6.48
2018-12-05T01:41:04.432Z,6.46
2018-12-05T01:42:04.420Z,6.57
2018-12-05T01:43:04.408Z,6.54
2018-12-05T01:44:04.398Z,6.61
2018-12-05T01:45:04.384Z,6.51
2018-12-05T01:46:04.374Z,6.50
2018-12-05T01:47:04.360Z,6.45
2018-12-05T01:48:04.349Z,6.48
2018-12-05T01:49:04.343Z,6.42
2018-12-05T01:50:04.410Z,6.45
2018-12-05T01:51:04.317Z,6.46
2018-12-05T01:52:04.306Z,6.39
2018-12-05T01:53:04.299Z,6.33
2018-12-05T01:54:04.288Z,6.39
2018-12-05T01:55:04.282Z,6.39
2018-12-05T01:56:04.267Z,6.32
2018-12-05T01:57:04.252Z,6.36
2018-12-05T01:58:04.240Z,6.35
2018-12-05T01:59:04.229Z,6.28
2018-12-05T02:00:04.218Z,6.28
2018-12-05T02:01:04.212Z,6.27
2018-12-05T02:02:04.203Z,6.30
2018-12-05T02:03:04.188Z,6.33
2018-12-05T02:04:04.179Z,6.28
2018-12-05T02:05:04.164Z,6.27
2018-12-05T02:06:04.153Z,6.27
2018-12-05T02:07:04.146Z,6.25
2018-12-05T02:08:04.133Z,6.17
2018-12-05T02:09:04.118Z,6.20
2018-12-05T02:10:04.107Z,6.24
2018-12-05T02:11:04.099Z,6.24
2018-12-05T02:12:04.086Z,6.11
2018-12-05T02:13:04.080Z,6.20
2018-12-05T02:14:04.067Z,6.19
2018-12-05T02:15:04.059Z,6.13
2018-12-05T02:16:04.045Z,6.08
2018-12-05T02:17:04.029Z,6.21
2018-12-05T02:18:04.018Z,6.10
2018-12-05T02:19:04.007Z,6.11
2018-12-05T02:20:03.995Z,6.16
2018-12-05T02:21:03.989Z,6.13
2018-12-05T02:22:03.978Z,6.13
2018-12-05T02:23:03.965Z,6.08
2018-12-05T02:24:03.949Z,6.10
2018-12-05T02:25:03.943Z,6.13
2018-12-05T02:26:03.934Z,6.13
2018-12-05T02:27:03.920Z,6.17
2018-12-05T02:28:03.909Z,6.14
2018-12-05T02:29:03.894Z,6.08
2018-12-05T02:30:03.883Z,6.10
2018-12-05T02:31:03.870Z,6.14
2018-12-05T02:32:03.861Z,6.11
2018-12-05T02:33:03.855Z,6.14
2018-12-05T02:34:03.844Z,6.14
2018-12-05T02:35:03.831Z,6.13
2018-12-05T02:36:03.821Z,6.10
2018-12-05T02:37:03.804Z,6.11
2018-12-05T02:38:03.795Z,6.11
2018-12-05T02:39:03.786Z,6.06
2018-12-05T02:40:03.778Z,6.17
2018-12-05T02:41:03.761Z,6.19
2018-12-05T02:42:03.748Z,6.03
2018-12-05T02:43:03.737Z,6.10
2018-12-05T02:44:03.724Z,5.92
2018-12-05T02:45:03.719Z,6.08
2018-12-05T02:46:03.707Z,5.95
2018-12-05T02:47:03.695Z,5.95
2018-12-05T02:48:03.686Z,5.96
2018-12-05T02:49:03.669Z,5.93
2018-12-05T02:50:03.659Z,5.98
2018-12-05T02:51:03.647Z,5.90
2018-12-05T02:52:03.635Z,5.99
2018-12-05T02:53:03.630Z,5.93
2018-12-05T02:54:03.633Z,5.96
2018-12-05T02:55:03.609Z,5.93
2018-12-05T02:56:03.590Z,5.81
2018-12-05T02:57:03.593Z,5.87
2018-12-05T02:58:03.573Z,5.78
2018-12-05T02:59:03.560Z,5.90
2018-12-05T03:00:03.548Z,5.84
2018-12-05T03:01:03.533Z,5.87
2018-12-05T03:02:03.522Z,5.80
2018-12-05T03:03:03.510Z,5.78
2018-12-05T03:04:03.498Z,5.85
2018-12-05T03:05:03.492Z,5.77
2018-12-05T03:06:03.487Z,5.78
2018-12-05T03:07:03.468Z,5.81
2018-12-05T03:08:03.459Z,5.73
2018-12-05T03:09:03.442Z,5.77
2018-12-05T03:10:03.432Z,5.73
2018-12-05T03:11:03.423Z,5.70
2018-12-05T03:12:03.425Z,5.70
2018-12-05T03:13:03.397Z,5.73
2018-12-05T03:14:03.386Z,5.69
2018-12-05T03:15:03.375Z,5.73
2018-12-05T03:16:03.362Z,5.66
2018-12-05T03:17:03.356Z,5.60
2018-12-05T03:18:03.347Z,5.67
2018-12-05T03:19:03.332Z,5.63
2018-12-05T03:20:05.314Z,5.60
2018-12-05T03:21:03.308Z,5.65
2018-12-05T03:22:03.296Z,5.52
2018-12-05T03:23:03.285Z,5.58
2018-12-05T03:24:03.273Z,5.62
2018-12-05T03:25:03.268Z,5.58
2018-12-05T03:26:03.260Z,5.59
2018-12-05T03:27:03.241Z,5.62
2018-12-05T03:28:03.229Z,5.63
2018-12-05T03:29:03.222Z,5.60
2018-12-05T03:30:03.237Z,5.62
2018-12-05T03:31:03.213Z,5.69
2018-12-05T03:32:03.192Z,5.63
2018-12-05T03:33:03.175Z,5.55
2018-12-05T03:34:03.165Z,5.55
2018-12-05T03:35:03.158Z,5.63
2018-12-05T03:36:03.142Z,5.58
2018-12-05T03:37:03.136Z,5.62
2018-12-05T03:38:03.126Z,5.60
2018-12-05T03:39:03.115Z,5.59
2018-12-05T03:40:03.102Z,5.56
2018-12-05T03:41:03.088Z,5.48
2018-12-05T03:42:03.076Z,5.47
2018-12-05T03:43:03.070Z,5.52
2018-12-05T03:44:03.058Z,5.51
2018-12-05T03:45:03.042Z,5.49
2018-12-05T03:46:03.034Z,5.51
2018-12-05T03:47:03.035Z,5.52
2018-12-05T03:48:03.010Z,5.52
2018-12-05T03:49:03.005Z,5.58
2018-12-05T03:50:03.065Z,5.49
2018-12-05T03:51:02.984Z,5.55
2018-12-05T03:52:02.970Z,5.52
2018-12-05T03:53:02.957Z,5.52
2018-12-05T03:54:02.946Z,5.52
2018-12-05T03:55:02.933Z,5.49
2018-12-05T03:56:02.922Z,5.56
2018-12-05T03:57:02.917Z,5.49
2018-12-05T03:58:02.906Z,5.51
2018-12-05T03:59:02.888Z,5.52
2018-12-05T04:00:02.878Z,5.51
2018-12-05T04:01:02.872Z,5.49
2018-12-05T04:02:02.863Z,5.59
2018-12-05T04:03:02.850Z,5.65
2018-12-05T04:04:02.840Z,5.75
2018-12-05T04:05:02.823Z,5.58
2018-12-05T04:06:02.814Z,5.58
2018-12-05T04:07:02.802Z,5.58
2018-12-05T04:08:02.794Z,5.60
2018-12-05T04:09:02.785Z,5.63
2018-12-05T04:10:02.775Z,5.62
2018-12-05T04:11:02.762Z,5.52
2018-12-05T04:12:02.753Z,5.58
2018-12-05T04:13:02.748Z,5.65
2018-12-05T04:14:02.725Z,5.62
2018-12-05T04:15:02.719Z,5.59
2018-12-05T04:16:02.716Z,5.65
2018-12-05T04:17:02.692Z,5.58
2018-12-05T04:18:02.681Z,5.63
2018-12-05T04:19:02.670Z,5.60
2018-12-05T04:20:02.659Z,5.66
2018-12-05T04:21:02.653Z,5.63
2018-12-05T04:22:02.647Z,5.59
2018-12-05T04:23:02.630Z,5.51
2018-12-05T04:24:02.622Z,5.60
2018-12-05T04:25:02.604Z,5.52
2018-12-05T04:26:02.660Z,5.45
2018-12-05T04:27:02.582Z,5.51
2018-12-05T04:28:02.573Z,5.47
2018-12-05T04:29:02.572Z,5.51
2018-12-05T04:30:02.554Z,5.60
2018-12-05T04:31:02.538Z,5.47
2018-12-05T04:32:02.528Z,5.60
2018-12-05T04:33:02.520Z,5.51
2018-12-05T04:34:02.509Z,5.59
2018-12-05T04:35:02.503Z,5.56
2018-12-05T04:36:02.489Z,5.60
2018-12-05T04:37:02.476Z,5.59
2018-12-05T04:38:02.463Z,5.60
2018-12-05T04:39:02.450Z,5.60
2018-12-05T04:40:02.439Z,5.60
2018-12-05T04:41:02.434Z,5.63
2018-12-05T04:42:02.423Z,5.67
2018-12-05T04:43:02.410Z,5.69
2018-12-05T04:44:02.400Z,5.66
2018-12-05T04:45:02.386Z,5.66
2018-12-05T04:46:02.385Z,5.67
2018-12-05T04:47:02.381Z,5.73
2018-12-05T04:48:02.356Z,5.70
2018-12-05T04:49:02.341Z,5.67
2018-12-05T04:50:02.330Z,5.67
2018-12-05T04:51:02.321Z,5.63
2018-12-05T04:52:02.308Z,5.63
2018-12-05T04:53:02.303Z,5.69
2018-12-05T04:54:02.292Z,5.66
2018-12-05T04:55:02.280Z,5.65
2018-12-05T04:56:02.272Z,5.73
2018-12-05T04:57:02.254Z,5.67
2018-12-05T04:58:02.243Z,5.73
2018-12-05T04:59:02.237Z,5.84
2018-12-05T05:00:02.222Z,5.74
2018-12-05T05:01:02.214Z,5.78
2018-12-05T05:02:02.207Z,5.78
2018-12-05T05:03:02.193Z,5.77
2018-12-05T05:04:02.179Z,5.78
2018-12-05T05:05:02.172Z,5.83
2018-12-05T05:06:02.162Z,5.83
2018-12-05T05:07:02.150Z,5.95
2018-12-05T05:08:02.142Z,5.95
2018-12-05T05:09:02.126Z,5.96
2018-12-05T05:10:02.114Z,5.99
2018-12-05T05:11:02.109Z,5.95
2018-12-05T05:12:02.093Z,5.98
2018-12-05T05:13:02.087Z,5.96
2018-12-05T05:14:02.076Z,6.03
2018-12-05T05:15:02.065Z,6.03
2018-12-05T05:16:02.055Z,5.98
2018-12-05T05:17:02.041Z,6.10
2018-12-05T05:18:02.030Z,6.05
2018-12-05T05:19:02.026Z,6.10
2018-12-05T05:20:02.013Z,6.08
2018-12-05T05:21:01.997Z,6.10
2018-12-05T05:22:01.989Z,6.08
2018-12-05T05:23:01.977Z,6.14
2018-12-05T05:24:01.966Z,6.14
2018-12-05T05:25:01.959Z,6.10
2018-12-05T05:26:01.949Z,6.08
2018-12-05T05:27:01.938Z,6.13
2018-12-05T05:28:01.929Z,6.19
2018-12-05T05:29:01.913Z,6.11
2018-12-05T05:30:01.903Z,6.11
2018-12-05T05:31:01.900Z,6.17
2018-12-05T05:32:01.881Z,6.17
2018-12-05T05:33:01.876Z,6.11
2018-12-05T05:34:01.867Z,6.11
2018-12-05T05:35:01.851Z,6.10
2018-12-05T05:36:01.842Z,6.14
2018-12-05T05:37:01.834Z,6.17
2018-12-05T05:38:01.824Z,6.08
2018-12-05T05:39:01.811Z,6.11
2018-12-05T05:40:01.802Z,6.10
2018-12-05T05:41:01.789Z,6.13
2018-12-05T05:42:01.777Z,6.21
2018-12-05T05:43:01.765Z,6.20
2018-12-05T05:44:01.757Z,6.20
2018-12-05T05:45:01.750Z,6.24
2018-12-05T05:46:01.739Z,6.21
2018-12-05T05:47:01.729Z,6.21
2018-12-05T05:48:01.720Z,6.21
2018-12-05T05:49:01.703Z,6.27
2018-12-05T05:50:01.693Z,6.35
2018-12-05T05:51:01.688Z,6.19
2018-12-05T05:52:01.678Z,6.33
2018-12-05T05:53:01.662Z,6.20
2018-12-05T05:54:01.653Z,6.32
2018-12-05T05:55:01.640Z,6.32
2018-12-05T05:56:01.631Z,6.36
2018-12-05T05:57:01.624Z,6.19
2018-12-05T05:58:01.616Z,6.17
2018-12-05T05:59:01.605Z,6.24
2018-12-05T06:00:01.594Z,6.25
2018-12-05T06:01:01.579Z,6.14
2018-12-05T06:02:01.568Z,6.27
2018-12-05T06:03:01.624Z,6.16
2018-12-05T06:04:01.547Z,6.21
2018-12-05T06:05:01.543Z,6.27
2018-12-05T06:06:01.534Z,6.24
2018-12-05T06:07:01.517Z,6.28
2018-12-05T06:08:01.507Z,6.30
2018-12-05T06:09:01.501Z,6.27
2018-12-05T06:10:01.492Z,6.19
2018-12-05T06:11:01.479Z,6.28
2018-12-05T06:12:01.469Z,6.19
2018-12-05T06:13:01.458Z,6.14
2018-12-05T06:14:01.445Z,6.27
2018-12-05T06:15:01.436Z,6.19
2018-12-05T06:16:01.423Z,6.21
2018-12-05T06:17:01.417Z,6.25
2018-12-05T06:18:01.407Z,6.28
2018-12-05T06:19:01.397Z,6.19
2018-12-05T06:20:01.390Z,6.28
2018-12-05T06:21:01.372Z,6.32
2018-12-05T06:22:01.362Z,6.27
2018-12-05T06:23:01.355Z,6.30
2018-12-05T06:24:01.344Z,6.30
2018-12-05T06:25:01.332Z,6.35
2018-12-05T06:26:01.320Z,6.33
2018-12-05T06:27:01.310Z,6.28
2018-12-05T06:28:01.300Z,6.27
2018-12-05T06:29:01.293Z,6.32
2018-12-05T06:30:01.317Z,6.25
2018-12-05T06:31:01.273Z,6.38
2018-12-05T06:32:01.262Z,6.32
2018-12-05T06:33:01.253Z,6.28
2018-12-05T06:34:01.236Z,6.28
2018-12-05T06:35:01.225Z,6.39
2018-12-05T06:36:01.218Z,6.30
2018-12-05T06:37:01.211Z,6.32
2018-12-05T06:38:01.199Z,6.33
2018-12-05T06:39:01.185Z,6.33
2018-12-05T06:40:01.177Z,6.33
2018-12-05T06:41:01.167Z,6.42
2018-12-05T06:42:01.157Z,6.35
2018-12-05T06:43:01.147Z,6.38
2018-12-05T06:44:01.137Z,6.39
2018-12-05T06:45:01.121Z,6.42
2018-12-05T06:46:01.112Z,6.39
2018-12-05T06:47:01.100Z,6.46
2018-12-05T06:48:01.091Z,6.42
2018-12-05T06:49:01.089Z,6.50
2018-12-05T06:50:01.075Z,6.45
2018-12-05T06:51:01.063Z,6.51
2018-12-05T06:52:01.053Z,6.45
2018-12-05T06:53:01.038Z,6.45
2018-12-05T06:54:01.029Z,6.53
2018-12-05T06:55:01.022Z,6.54
2018-12-05T06:56:01.011Z,6.46
2018-12-05T06:57:00.997Z,6.50
2018-12-05T06:58:00.986Z,6.50
2018-12-05T06:59:00.976Z,6.57
2018-12-05T07:00:00.967Z,6.53
2018-12-05T07:01:00.960Z,6.63
2018-12-05T07:02:00.951Z,6.54
2018-12-05T07:03:00.940Z,6.61
2018-12-05T07:04:00.930Z,6.53
2018-12-05T07:05:00.915Z,6.55
2018-12-05T07:06:00.905Z,6.57
2018-12-05T07:07:00.894Z,6.58
2018-12-05T07:08:00.884Z,6.57
2018-12-05T07:09:00.879Z,6.60
2018-12-05T07:10:00.868Z,6.63
2018-12-05T07:11:00.855Z,6.60
2018-12-05T07:12:00.845Z,6.58
2018-12-05T07:13:00.838Z,6.60
2018-12-05T07:14:00.827Z,6.57
2018-12-05T07:15:00.818Z,6.64
2018-12-05T07:16:00.807Z,6.60
2018-12-05T07:17:00.792Z,6.57
2018-12-05T07:18:00.782Z,6.55
2018-12-05T07:19:00.772Z,6.55
2018-12-05T07:20:00.769Z,6.64
2018-12-05T07:21:00.758Z,6.51
2018-12-05T07:22:00.747Z,6.45
2018-12-05T07:23:00.735Z,6.46
2018-12-05T07:24:00.725Z,6.46
2018-12-05T07:25:00.711Z,6.53
2018-12-05T07:26:00.701Z,6.58
2018-12-05T07:27:00.694Z,6.60
2018-12-05T07:28:00.686Z,6.58
2018-12-05T07:29:00.670Z,6.57
2018-12-05T07:30:00.661Z,6.60
2018-12-05T07:31:00.650Z,6.64
2018-12-05T07:32:00.643Z,6.58
2018-12-05T07:33:00.635Z,6.57
2018-12-05T07:34:00.623Z,6.57
2018-12-05T07:35:00.613Z,6.55
2018-12-05T07:36:00.603Z,6.79
2018-12-05T07:37:00.587Z,6.76
2018-12-05T07:38:00.578Z,6.72
2018-12-05T07:39:00.569Z,6.76
2018-12-05T07:40:00.558Z,6.81
2018-12-05T07:41:00.553Z,6.82
2018-12-05T07:42:00.542Z,6.89
2018-12-05T07:43:00.528Z,6.91
2018-12-05T07:44:00.517Z,6.87
2018-12-05T07:45:00.511Z,6.89
2018-12-05T07:46:00.507Z,6.82
2018-12-05T07:47:00.490Z,6.91
2018-12-05T07:48:00.481Z,6.91
2018-12-05T07:49:00.469Z,6.93
2018-12-05T07:50:00.456Z,6.89
2018-12-05T07:51:00.451Z,6.93
2018-12-05T07:52:00.438Z,6.93
2018-12-05T07:53:00.431Z,6.94
2018-12-05T07:54:00.420Z,6.94
2018-12-05T07:55:00.409Z,6.91
2018-12-05T07:56:00.401Z,6.94
2018-12-05T07:57:00.386Z,6.87
2018-12-05T07:58:00.375Z,6.91
2018-12-05T07:59:00.371Z,6.91
2018-12-05T08:00:00.360Z,6.89
2018-12-05T08:01:00.345Z,6.91
2018-12-05T08:02:00.335Z,6.91
2018-12-05T08:03:01.800Z,6.94
2018-12-05T08:04:00.316Z,6.90
2018-12-05T08:05:00.310Z,6.90
2018-12-05T08:06:00.300Z,6.93
2018-12-05T08:07:00.289Z,6.91
2018-12-05T08:08:00.284Z,6.91
2018-12-05T08:09:00.267Z,6.90
2018-12-05T08:10:00.255Z,6.93
2018-12-05T08:11:00.245Z,6.87
2018-12-05T08:12:00.238Z,6.89
2018-12-05T08:13:00.232Z,6.93
2018-12-05T08:14:00.222Z,6.87
2018-12-05T08:15:00.208Z,6.87
2018-12-05T08:16:00.196Z,6.87
2018-12-05T08:17:00.191Z,6.93
2018-12-05T08:18:00.181Z,7.01
2018-12-05T08:19:00.170Z,6.94
2018-12-05T08:20:00.161Z,7.01
2018-12-05T08:21:00.146Z,6.96
2018-12-05T08:22:00.137Z,7.04
2018-12-05T08:23:00.127Z,7.07
2018-12-05T08:24:00.117Z,6.97
2018-12-05T08:25:00.111Z,7.01
2018-12-05T08:26:00.101Z,7.05
2018-12-05T08:27:00.091Z,7.09
2018-12-05T08:28:00.082Z,7.11
2018-12-05T08:29:00.068Z,7.11
2018-12-05T08:30:00.060Z,7.16
2018-12-05T08:31:00.053Z,7.15
2018-12-05T08:32:00.042Z,7.08
2018-12-05T08:33:00.027Z,7.00
2018-12-05T08:34:00.019Z,7.01
2018-12-05T08:35:00.008Z,6.97
2018-12-05T08:36:00.008Z,7.05
2018-12-05T08:36:59.995Z,7.01
2018-12-05T08:38:00.579Z,7.00
2018-12-05T08:38:59.968Z,7.04
2018-12-05T08:39:59.959Z,7.01
2018-12-05T08:40:59.954Z,7.01
2018-12-05T08:41:59.946Z,7.07
2018-12-05T08:43:00.008Z,7.04
2018-12-05T08:43:59.925Z,7.16
2018-12-05T08:44:59.910Z,7.09
2018-12-05T08:45:59.905Z,7.19
2018-12-05T08:46:59.894Z,7.18
2018-12-05T08:47:59.885Z,7.12
2018-12-05T08:48:59.873Z,7.14
2018-12-05T08:49:59.862Z,7.14
2018-12-05T08:50:59.852Z,7.14
2018-12-05T08:51:59.845Z,7.15
2018-12-05T08:52:59.837Z,7.11
2018-12-05T08:53:59.828Z,7.21
2018-12-05T08:54:59.817Z,7.14
2018-12-05T08:55:59.809Z,7.15
2018-12-05T08:56:59.796Z,7.14
2018-12-05T08:57:59.785Z,7.18
2018-12-05T08:58:59.774Z,7.14
2018-12-05T08:59:59.764Z,7.12
2018-12-05T09:00:59.761Z,7.18
2018-12-05T09:01:59.751Z,7.24
2018-12-05T09:02:59.739Z,7.23
2018-12-05T09:03:59.727Z,7.15
2018-12-05T09:04:59.721Z,7.16
2018-12-05T09:05:59.721Z,7.23
2018-12-05T09:06:59.702Z,7.27
2018-12-05T09:07:59.694Z,7.30
2018-12-05T09:08:59.679Z,7.29
2018-12-05T09:09:59.670Z,7.29
2018-12-05T09:10:59.658Z,7.29
2018-12-05T09:11:59.650Z,7.30
2018-12-05T09:12:59.645Z,7.26
2018-12-05T09:13:59.637Z,7.29
2018-12-05T09:14:59.625Z,7.30
2018-12-05T09:15:59.621Z,7.32
2018-12-05T09:16:59.604Z,7.36
2018-12-05T09:17:59.593Z,7.42
2018-12-05T09:18:59.588Z,7.50
2018-12-05T09:19:59.578Z,7.42
2018-12-05T09:20:59.564Z,7.47
2018-12-05T09:21:59.555Z,7.47
2018-12-05T09:22:59.546Z,7.44
2018-12-05T09:23:59.536Z,7.48
2018-12-05T09:24:59.533Z,7.50
2018-12-05T09:25:59.522Z,7.44
2018-12-05T09:26:59.513Z,7.44
2018-12-05T09:27:59.502Z,7.51
2018-12-05T09:28:59.491Z,7.52
2018-12-05T09:29:59.481Z,7.54
2018-12-05T09:30:59.470Z,7.63
2018-12-05T09:31:59.460Z,7.60
2018-12-05T09:32:59.456Z,7.57
2018-12-05T09:33:59.447Z,7.62
2018-12-05T09:34:59.433Z,7.52
2018-12-05T09:35:59.423Z,7.62
2018-12-05T09:36:59.420Z,7.62
2018-12-05T09:37:59.409Z,7.62
2018-12-05T09:38:59.401Z,7.63
2018-12-05T09:39:59.393Z,7.69
2018-12-05T09:40:59.377Z,7.76
2018-12-05T09:41:59.368Z,7.85
2018-12-05T09:42:59.358Z,7.89
2018-12-05T09:43:59.350Z,7.88
2018-12-05T09:44:59.345Z,7.96
2018-12-05T09:45:59.340Z,7.88
2018-12-05T09:46:59.327Z,7.89
2018-12-05T09:47:59.318Z,8.00
2018-12-05T09:48:59.306Z,7.96
2018-12-05T09:49:59.295Z,8.00
2018-12-05T09:50:59.291Z,7.91
2018-12-05T09:51:59.284Z,7.86
2018-12-05T09:52:59.268Z,7.85
2018-12-05T09:53:59.259Z,7.86
2018-12-05T09:54:59.250Z,7.89
2018-12-05T09:55:59.242Z,7.91
2018-12-05T09:56:59.238Z,7.95
2018-12-05T09:57:59.230Z,7.95
2018-12-05T09:58:59.218Z,8.14
2018-12-05T09:59:59.209Z,8.10
2018-12-05T10:00:59.197Z,8.25
2018-12-05T10:01:59.188Z,8.34
2018-12-05T10:02:59.179Z,8.27
2018-12-05T10:03:59.171Z,8.27
2018-12-05T10:04:59.167Z,8.45
2018-12-05T10:05:59.159Z,8.42
2018-12-05T10:06:59.144Z,8.43
2018-12-05T10:07:59.135Z,8.43
2018-12-05T10:08:59.133Z,8.39
2018-12-05T10:09:59.125Z,8.27
2018-12-05T10:10:59.114Z,8.18
2018-12-05T10:11:59.106Z,8.28
2018-12-05T10:12:59.094Z,8.40
2018-12-05T10:13:59.085Z,8.37
2018-12-05T10:14:59.077Z,8.39
2018-12-05T10:15:59.067Z,8.34
2018-12-05T10:16:59.064Z,8.28
2018-12-05T10:17:59.057Z,8.28
2018-12-05T10:18:59.048Z,8.18
2018-12-05T10:19:59.040Z,8.20
2018-12-05T10:20:59.031Z,8.27
2018-12-05T10:21:59.027Z,8.20
2018-12-05T10:22:59.015Z,8.21
2018-12-05T10:23:59.007Z,8.21
2018-12-05T10:24:58.993Z,8.25
2018-12-05T10:25:58.987Z,8.22
2018-12-05T10:26:58.979Z,8.27
2018-12-05T10:27:58.968Z,8.22
2018-12-05T10:28:58.964Z,8.21
2018-12-05T10:29:58.956Z,8.28
2018-12-05T10:30:58.947Z,8.20
2018-12-05T10:31:58.945Z,8.21
2018-12-05T10:32:58.927Z,8.27
2018-12-05T10:33:58.918Z,8.24
2018-12-05T10:34:58.910Z,8.32
2018-12-05T10:35:58.901Z,8.31
2018-12-05T10:36:58.899Z,8.34
2018-12-05T10:37:58.889Z,8.29
2018-12-05T10:38:58.876Z,8.34
2018-12-05T10:39:58.870Z,8.32
2018-12-05T10:40:58.863Z,8.36
2018-12-05T10:41:58.855Z,8.45
2018-12-05T10:42:58.846Z,8.39
2018-12-05T10:43:58.839Z,8.50
2018-12-05T10:44:58.825Z,8.50
2018-12-05T10:45:58.817Z,8.57
2018-12-05T10:46:58.809Z,8.58
2018-12-05T10:47:58.800Z,8.65
2018-12-05T10:48:58.798Z,8.80
2018-12-05T10:49:58.793Z,8.85
2018-12-05T10:50:58.780Z,8.85
2018-12-05T10:51:58.770Z,8.96
2018-12-05T10:52:58.759Z,9.00
2018-12-05T10:53:58.750Z,9.00
2018-12-05T10:54:58.746Z,9.04
2018-12-05T10:55:58.737Z,9.10
2018-12-05T10:56:58.726Z,9.06
2018-12-05T10:57:58.717Z,9.17
2018-12-05T10:58:58.711Z,9.13
2018-12-05T10:59:58.704Z,9.16
2018-12-05T11:00:58.699Z,9.13
2018-12-05T11:01:58.690Z,9.04
2018-12-05T11:02:58.681Z,9.00
2018-12-05T11:03:58.673Z,8.83
2018-12-05T11:04:58.661Z,8.79
2018-12-05T11:05:58.653Z,8.75
2018-12-05T11:06:58.645Z,8.50
2018-12-05T11:07:58.636Z,8.45
2018-12-05T11:08:58.633Z,8.47
2018-12-05T11:09:58.624Z,8.36
2018-12-05T11:10:58.613Z,8.46
2018-12-05T11:11:58.606Z,8.40
2018-12-05T11:12:58.600Z,8.40
2018-12-05T11:13:58.593Z,8.42
2018-12-05T11:14:58.585Z,8.42
2018-12-05T11:15:58.575Z,8.34
2018-12-05T11:16:58.564Z,8.39
2018-12-05T11:17:58.555Z,8.29
2018-12-05T11:18:58.547Z,8.42
2018-12-05T11:19:58.538Z,8.50
2018-12-05T11:20:58.534Z,8.40
2018-12-05T11:21:58.527Z,8.47
2018-12-05T11:22:58.519Z,8.54
2018-12-05T11:23:58.511Z,8.40
2018-12-05T11:24:58.496Z,8.50
2018-12-05T11:25:58.489Z,8.49
2018-12-05T11:26:58.485Z,8.49
2018-12-05T11:27:58.474Z,8.57
2018-12-05T11:28:58.463Z,8.57
2018-12-05T11:29:58.454Z,8.58
2018-12-05T11:30:58.445Z,8.63
2018-12-05T11:31:58.437Z,8.54
2018-12-05T11:32:58.434Z,8.57
2018-12-05T11:33:58.425Z,8.49
2018-12-05T11:34:58.416Z,8.54
2018-12-05T11:35:58.407Z,8.50
2018-12-05T11:36:58.397Z,8.49
2018-12-05T11:37:58.387Z,8.57
2018-12-05T11:38:58.376Z,8.54
2018-12-05T11:39:58.368Z,8.54
2018-12-05T11:40:58.364Z,8.68
2018-12-05T11:41:58.357Z,8.71
2018-12-05T11:42:58.345Z,8.64
2018-12-05T11:43:58.336Z,8.78
2018-12-05T11:44:58.331Z,8.79
2018-12-05T11:45:58.325Z,8.76
2018-12-05T11:46:58.314Z,8.73
2018-12-05T11:47:58.309Z,8.64
2018-12-05T11:48:58.292Z,8.71
2018-12-05T11:49:58.284Z,8.73
2018-12-05T11:50:58.274Z,8.75
2018-12-05T11:51:58.269Z,8.85
2018-12-05T11:52:58.262Z,8.86
2018-12-05T11:53:58.255Z,8.82
2018-12-05T11:54:58.250Z,8.83
2018-12-05T11:55:58.238Z,8.88
2018-12-05T11:56:58.225Z,8.93
2018-12-05T11:57:58.217Z,8.94
2018-12-05T11:58:58.215Z,9.03
2018-12-05T11:59:58.204Z,9.03
2018-12-05T12:00:58.191Z,9.03
2018-12-05T12:01:58.184Z,9.00
2018-12-05T12:02:58.173Z,9.03
2018-12-05T12:03:58.165Z,9.01
2018-12-05T12:04:58.165Z,9.17
2018-12-05T12:05:58.162Z,9.16
2018-12-05T12:06:58.149Z,9.19
2018-12-05T12:07:58.140Z,9.06
2018-12-05T12:08:58.128Z,9.04
2018-12-05T12:09:58.121Z,9.04
2018-12-05T12:10:58.108Z,9.00
2018-12-05T12:11:58.099Z,8.86
2018-12-05T12:12:58.102Z,8.88
2018-12-05T12:13:58.089Z,8.86
2018-12-05T12:14:58.075Z,9.01
2018-12-05T12:15:58.066Z,9.04
2018-12-05T12:16:58.068Z,9.00
2018-12-05T12:17:58.057Z,9.00
2018-12-05T12:18:58.048Z,9.08
2018-12-05T12:19:58.037Z,9.00
2018-12-05T12:20:58.027Z,9.03
2018-12-05T12:21:58.018Z,9.03
2018-12-05T12:22:58.009Z,9.04
2018-12-05T12:23:58.002Z,9.03
2018-12-05T12:24:57.996Z,8.94
2018-12-05T12:25:57.988Z,8.89
2018-12-05T12:26:57.980Z,8.83
2018-12-05T12:27:57.973Z,8.80
2018-12-05T12:28:57.958Z,8.78
2018-12-05T12:29:57.951Z,8.75
2018-12-05T12:30:57.948Z,8.86
2018-12-05T12:31:57.939Z,8.79
2018-12-05T12:32:57.926Z,8.91
2018-12-05T12:33:57.917Z,8.83
2018-12-05T12:34:57.911Z,8.91
2018-12-05T12:35:57.900Z,9.03
2018-12-05T12:36:57.898Z,9.00
2018-12-05T12:37:57.891Z,9.12
2018-12-05T12:38:57.887Z,9.20
2018-12-05T12:39:57.871Z,9.12
2018-12-05T12:40:57.860Z,9.16
2018-12-05T12:41:57.851Z,9.27
2018-12-05T12:42:57.842Z,9.31
2018-12-05T12:43:57.834Z,9.38
2018-12-05T12:44:57.831Z,9.40
2018-12-05T12:45:57.826Z,9.38
2018-12-05T12:46:57.809Z,9.45
2018-12-05T12:47:57.803Z,9.41
2018-12-05T12:48:57.798Z,9.48
2018-12-05T12:49:57.790Z,9.38
2018-12-05T12:50:57.781Z,9.41
2018-12-05T12:51:57.773Z,9.38
2018-12-05T12:52:57.762Z,9.44
2018-12-05T12:53:57.752Z,9.34
2018-12-05T12:54:57.748Z,9.37
2018-12-05T12:55:57.739Z,9.41
2018-12-05T12:56:57.733Z,9.41
2018-12-05T12:57:57.724Z,9.41
2018-12-05T12:58:57.720Z,9.27
2018-12-05T12:59:57.709Z,9.24
2018-12-05T13:00:57.696Z,9.23
2018-12-05T13:01:57.688Z,9.30
2018-12-05T13:02:57.685Z,9.26
2018-12-05T13:03:57.676Z,9.23
2018-12-05T13:04:57.664Z,9.22
2018-12-05T13:05:57.659Z,9.23
2018-12-05T13:06:57.647Z,9.24
2018-12-05T13:07:57.640Z,9.27
2018-12-05T13:08:57.635Z,9.23
2018-12-05T13:09:57.627Z,9.13
2018-12-05T13:10:57.619Z,9.17
2018-12-05T13:11:57.612Z,9.15
2018-12-05T13:12:57.600Z,9.32
2018-12-05T13:13:57.592Z,9.26
2018-12-05T13:14:57.656Z,9.24
2018-12-05T13:15:57.575Z,9.19
2018-12-05T13:16:57.573Z,9.15
2018-12-05T13:17:57.565Z,9.23